Time;durP1;ratioP1;P1;durP2;ratioP2;P2;SDS_P1;SDS_P2;PMS_P1;PMS_P2;Temp;Humidity;BMP_temperature;BMP_pressure;BME280_temperature;BME280_humidity;BME280_pressure;Samples;Min_cycle;Max_cycle;Signal;HPM_P1;HPM_P2
2022/04/22 00:01:30;;;;;;;17.60;11.57;;;;;;;11.69;65.11;98245.09;5008572;28;20037;-84
2022/04/22 00:03:56;;;;;;;15.85;11.82;;;;;;;11.55;65.13;98246.72;5018692;28;20030;-84
2022/04/22 00:06:21;;;;;;;19.00;12.23;;;;;;;11.63;65.04;98242.66;5010063;28;20497;-84
2022/04/22 00:08:46;;;;;;;20.73;13.18;;;;;;;11.59;64.56;98253.13;5008652;28;20025;-84
2022/04/22 00:11:30;;;;;;;21.13;13.63;;;;;;;11.61;64.88;98242.16;5023431;28;20041;-84
2022/04/22 00:13:57;;;;;;;16.73;13.05;;;;;;;11.51;65.51;98240.28;5026098;28;20029;-83
2022/04/22 00:16:23;;;;;;;16.77;12.70;;;;;;;11.61;65.23;98231.44;5026859;28;20025;-83
2022/04/22 00:18:49;;;;;;;20.60;13.05;;;;;;;11.54;65.36;98228.25;4995924;28;20400;-83
2022/04/22 00:21:14;;;;;;;16.60;12.25;;;;;;;11.53;65.09;98232.00;5017325;28;20596;-84
2022/04/22 00:23:39;;;;;;;17.48;11.63;;;;;;;11.52;65.54;98235.72;4992888;28;20030;-84
2022/04/22 00:26:05;;;;;;;17.58;12.45;;;;;;;11.53;65.40;98219.41;5021602;28;20401;-84
2022/04/22 00:28:31;;;;;;;21.38;12.98;;;;;;;11.52;65.18;98223.19;5027484;28;20040;-84
2022/04/22 00:30:57;;;;;;;20.73;12.90;;;;;;;11.63;65.39;98221.28;5021404;28;20030;-84
2022/04/22 00:33:23;;;;;;;18.27;13.15;;;;;;;11.53;65.61;98219.41;5025895;28;20035;-84
2022/04/22 00:35:48;;;;;;;18.90;12.95;;;;;;;11.50;64.99;98216.50;4995306;28;20029;-84
2022/04/22 00:38:14;;;;;;;22.95;13.35;;;;;;;11.45;65.65;98224.50;5014701;28;20114;-84
2022/04/22 00:40:39;;;;;;;17.17;12.43;;;;;;;11.44;65.26;98215.72;5017127;28;20388;-83
2022/04/22 00:43:21;;;;;;;17.40;12.65;;;;;;;11.48;65.62;98227.47;5029032;28;20048;-83
2022/04/22 00:45:48;;;;;;;17.27;12.40;;;;;;;11.54;65.81;98222.91;5022179;28;20187;-84
2022/04/22 00:48:14;;;;;;;20.02;14.07;;;;;;;11.43;65.93;98221.31;5015457;28;20155;-83
2022/04/22 00:50:40;;;;;;;18.27;12.43;;;;;;;11.48;65.60;98213.28;5012601;28;20049;-83
2022/04/22 00:53:06;;;;;;;16.35;11.82;;;;;;;11.45;65.41;98216.50;5030666;28;20525;-83
2022/04/22 00:55:33;;;;;;;19.20;12.23;;;;;;;11.50;65.45;98203.94;5027595;28;20033;-84
2022/04/22 00:57:59;;;;;;;18.35;12.40;;;;;;;11.58;65.12;98198.03;5022033;28;20489;-84
2022/04/22 01:00:25;;;;;;;17.40;11.50;;;;;;;11.46;65.69;98202.88;5027596;28;20032;-83
2022/04/22 01:02:50;;;;;;;20.00;12.90;;;;;;;11.42;65.42;98190.34;5037867;28;20025;-84
2022/04/22 01:10:45;;;;;;;15.65;11.63;;;;;;;11.42;65.17;98183.13;5020148;28;20069;-83
2022/04/22 01:13:10;;;;;;;16.90;11.80;;;;;;;11.40;65.34;98177.22;5026449;28;20042;-83
2022/04/22 01:15:36;;;;;;;17.30;11.23;;;;;;;11.38;65.83;98170.56;5030188;28;20061;-84
2022/04/22 01:18:01;;;;;;;17.17;12.73;;;;;;;11.37;65.55;98176.97;5042757;28;20104;-83
2022/04/22 01:20:27;;;;;;;15.00;11.30;;;;;;;11.45;65.58;98163.06;5037534;28;20095;-83
2022/04/22 01:22:52;;;;;;;15.20;11.40;;;;;;;11.43;65.65;98155.31;5030101;28;20102;-84
2022/04/22 01:25:18;;;;;;;16.08;11.85;;;;;;;11.44;65.24;98162.28;5031619;28;20041;-83
2022/04/22 01:27:47;;;;;;;18.17;12.05;;;;;;;11.32;65.81;98165.22;5012834;28;20045;-83
2022/04/22 01:30:13;;;;;;;20.60;10.95;;;;;;;11.45;65.19;98158.50;5035424;28;20028;-84
2022/04/22 01:32:38;;;;;;;16.58;12.07;;;;;;;11.37;64.99;98161.75;5015855;28;20370;-84
2022/04/22 01:35:03;;;;;;;17.65;11.48;;;;;;;11.42;65.60;98148.38;5033402;28;20037;-84
2022/04/22 01:37:29;;;;;;;16.10;11.48;;;;;;;11.47;65.27;98145.69;5019282;28;20025;-83
2022/04/22 01:39:54;;;;;;;15.18;11.38;;;;;;;11.34;65.46;98143.56;5033670;28;20052;-84
2022/04/22 01:42:20;;;;;;;15.52;10.70;;;;;;;11.42;64.68;98142.22;5035967;28;20053;-83
2022/04/22 01:44:46;;;;;;;15.68;11.27;;;;;;;11.35;65.06;98147.06;5018772;28;20032;-83
2022/04/22 01:47:11;;;;;;;14.18;10.23;;;;;;;11.36;65.33;98127.28;5041277;28;20021;-83
2022/04/22 01:49:36;;;;;;;15.43;11.43;;;;;;;11.32;65.40;98140.38;5029854;28;20160;-83
2022/04/22 01:52:02;;;;;;;15.98;11.98;;;;;;;11.37;65.93;98137.69;5030703;28;20497;-84
2022/04/22 01:54:27;;;;;;;17.13;11.45;;;;;;;11.21;66.03;98125.44;5014122;28;20040;-83
2022/04/22 01:56:52;;;;;;;15.88;11.05;;;;;;;11.36;65.38;98137.97;5029513;28;20163;-83
2022/04/22 01:59:19;;;;;;;18.80;13.15;;;;;;;11.31;66.21;98130.78;5022454;28;20394;-84
2022/04/22 02:01:44;;;;;;;17.15;12.00;;;;;;;11.35;65.29;98131.81;5031836;28;20033;-84
2022/04/22 02:04:09;;;;;;;15.25;12.13;;;;;;;11.41;65.52;98121.91;5018093;28;20029;-83
2022/04/22 02:06:35;;;;;;;17.83;11.65;;;;;;;11.39;65.27;98127.53;5008590;28;20048;-83
2022/04/22 02:09:00;;;;;;;17.73;13.10;;;;;;;11.29;65.82;98125.69;5032838;28;20485;-84
2022/04/22 02:11:25;;;;;;;13.63;11.65;;;;;;;11.35;65.89;98128.34;5019085;28;20029;-84
2022/04/22 02:13:50;;;;;;;15.38;11.55;;;;;;;11.23;66.39;98123.28;5034075;28;20029;-84
2022/04/22 02:16:16;;;;;;;18.23;12.57;;;;;;;11.32;66.00;98127.00;5018976;28;20440;-84
2022/04/22 02:18:42;;;;;;;15.43;11.02;;;;;;;11.36;66.31;98130.75;5016679;28;20033;-83
2022/04/22 02:21:09;;;;;;;15.93;10.55;;;;;;;11.31;66.25;98130.78;5025961;28;20041;-83
2022/04/22 02:23:35;;;;;;;15.25;11.60;;;;;;;11.26;66.58;98125.44;5031646;28;20037;-83
2022/04/22 02:26:01;;;;;;;14.45;10.88;;;;;;;11.29;66.73;98127.56;5014892;28;20033;-84
2022/04/22 02:28:32;;;;;;;14.50;11.15;;;;;;;11.37;65.86;98134.22;5012394;28;20505;-84
2022/04/22 02:31:01;;;;;;;16.23;11.40;;;;;;;11.25;66.78;98124.63;5025484;28;20037;-84
2022/04/22 02:33:26;;;;;;;13.60;10.10;;;;;;;11.27;66.31;98119.81;5035218;28;20025;-83
2022/04/22 02:35:52;;;;;;;14.68;9.85;;;;;;;11.30;66.59;98118.47;5016461;28;20075;-84
2022/04/22 02:38:17;;;;;;;13.68;9.02;;;;;;;11.27;66.69;98127.00;5020888;28;20053;-84
2022/04/22 02:46:10;;;;;;;12.93;10.00;;;;;;;11.32;66.34;98113.66;5027526;28;20114;-83
2022/04/22 02:48:35;;;;;;;11.85;9.45;;;;;;;11.16;67.07;98112.09;5025079;28;20482;-83
2022/04/22 02:51:00;;;;;;;12.02;9.88;;;;;;;11.30;67.01;98118.47;5017372;28;20041;-83
2022/04/22 02:53:26;;;;;;;13.52;9.23;;;;;;;11.30;66.96;98105.13;5022169;28;20021;-84
2022/04/22 02:55:52;;;;;;;12.68;8.85;;;;;;;11.29;66.17;98109.66;5012150;28;20183;-83
2022/04/22 02:58:18;;;;;;;13.43;9.13;;;;;;;11.26;66.98;98112.88;5026521;28;20037;-83
2022/04/22 03:00:44;;;;;;;15.18;9.93;;;;;;;11.24;66.88;98109.69;5028306;28;20045;-84
2022/04/22 03:03:10;;;;;;;12.55;8.88;;;;;;;11.27;67.18;98109.13;5020807;28;20475;-83
2022/04/22 03:05:35;;;;;;;14.32;10.48;;;;;;;11.16;66.57;98107.53;5005841;28;20052;-84
2022/04/22 03:08:01;;;;;;;11.35;9.35;;;;;;;11.27;66.67;98101.09;5027913;28;20064;-84
2022/04/22 03:10:27;;;;;;;11.35;8.50;;;;;;;11.27;67.08;98089.63;5030208;28;20045;-83
2022/04/22 03:12:52;;;;;;;12.57;8.40;;;;;;;11.26;66.67;98093.38;5014970;28;20127;-84
2022/04/22 03:15:17;;;;;;;12.65;9.43;;;;;;;11.23;67.48;98092.03;5011606;28;20064;-84
2022/04/22 03:17:43;;;;;;;13.93;9.35;;;;;;;11.14;67.37;98085.66;5009188;28;20029;-83
2022/04/22 03:20:09;;;;;;;11.75;8.65;;;;;;;11.28;66.85;98096.56;5022023;28;20040;-84
2022/04/22 03:22:36;;;;;;;11.35;8.85;;;;;;;11.28;66.45;98092.03;5023108;28;20025;-83
2022/04/22 03:25:02;;;;;;;11.93;8.20;;;;;;;11.11;66.95;98088.06;5023107;28;20039;-83
2022/04/22 03:27:27;;;;;;;10.05;7.93;;;;;;;11.25;66.98;98091.75;5010941;28;20017;-83
2022/04/22 03:29:53;;;;;;;11.43;9.02;;;;;;;11.25;66.65;98091.75;5026724;28;20042;-83
2022/04/22 03:32:19;;;;;;;10.70;8.38;;;;;;;11.20;67.72;98091.78;5025807;28;20029;-83
2022/04/22 03:34:44;;;;;;;12.02;8.80;;;;;;;11.14;67.77;98099.00;5017338;28;20021;-84
2022/04/22 03:37:09;;;;;;;12.52;9.25;;;;;;;11.13;67.12;98094.75;5029759;28;20072;-83
2022/04/22 03:39:34;;;;;;;11.40;8.35;;;;;;;11.17;66.85;98093.13;5026837;28;20033;-83
2022/04/22 03:42:01;;;;;;;11.95;8.00;;;;;;;11.23;66.84;98099.25;5008961;28;20469;-84
2022/04/22 03:44:26;;;;;;;14.27;9.45;;;;;;;11.17;67.15;98100.34;5007172;28;20037;-83
2022/04/22 03:46:52;;;;;;;12.68;8.27;;;;;;;11.20;67.42;98095.25;5024849;28;20366;-84
2022/04/22 03:49:17;;;;;;;10.52;8.38;;;;;;;11.30;66.70;98095.25;5030418;28;20065;-83
2022/04/22 03:51:42;;;;;;;12.48;8.88;;;;;;;11.26;66.50;98090.69;5006363;28;20481;-83
2022/04/22 03:54:08;;;;;;;9.80;7.90;;;;;;;11.15;67.07;98092.59;5026249;28;20025;-83
2022/04/22 03:59:17;;;;;;;12.32;8.45;;;;;;;11.20;67.57;98084.56;5020950;28;20064;-83
2022/04/22 04:01:43;;;;;;;11.85;7.63;;;;;;;11.16;67.20;98074.72;5010517;28;20485;-83
2022/04/22 04:04:08;;;;;;;13.02;10.00;;;;;;;11.08;67.23;98081.41;5010587;28;20042;-84
2022/04/22 04:06:35;;;;;;;9.95;8.20;;;;;;;11.25;66.84;98079.22;5016499;28;20041;-83
2022/04/22 04:17:14;;;;;;;10.48;8.00;;;;;;;11.07;67.45;98071.00;5025843;28;20052;-83
2022/04/22 04:25:08;;;;;;;11.00;7.97;;;;;;;11.10;67.03;98067.75;5026152;28;20389;-84
2022/04/22 04:27:36;;;;;;;10.88;8.82;;;;;;;11.13;66.71;98065.38;5007794;28;20037;-84
2022/04/22 04:30:02;;;;;;;10.38;7.45;;;;;;;11.11;66.85;98072.84;5025891;28;20052;-84
2022/04/22 04:32:27;;;;;;;11.45;8.93;;;;;;;11.08;66.97;98060.03;5019502;28;20034;-84
2022/04/22 04:34:53;;;;;;;12.65;9.18;;;;;;;11.05;67.34;98065.13;4992627;28;20471;-82
2022/04/22 04:37:18;;;;;;;11.40;9.18;;;;;;;11.15;67.29;98062.41;5011020;28;20049;-83
2022/04/22 04:39:43;;;;;;;12.00;8.43;;;;;;;11.11;67.13;98064.84;5017918;28;20033;-81
2022/04/22 04:42:09;;;;;;;12.30;8.27;;;;;;;11.10;67.14;98070.44;5017614;28;20034;-81
2022/04/22 04:44:36;;;;;;;11.88;9.05;;;;;;;11.15;67.25;98063.22;5000010;28;20501;-82
2022/04/22 04:47:02;;;;;;;12.75;9.43;;;;;;;11.15;66.82;98071.22;5021364;28;20022;-82
2022/04/22 04:49:27;;;;;;;12.68;9.57;;;;;;;11.12;67.10;98062.94;5023088;28;20631;-82
2022/04/22 04:51:53;;;;;;;14.68;9.88;;;;;;;11.10;67.79;98070.44;4995932;28;20034;-82
2022/04/22 04:54:18;;;;;;;12.50;9.52;;;;;;;11.02;67.94;98071.78;5001841;28;20041;-82
2022/04/22 04:56:43;;;;;;;9.75;8.25;;;;;;;11.06;67.27;98070.19;5020168;28;20544;-82
2022/04/22 04:59:09;;;;;;;12.70;9.27;;;;;;;11.08;67.50;98059.22;4992179;28;20038;-82
2022/04/22 05:01:34;;;;;;;13.48;9.20;;;;;;;11.20;66.48;98071.19;5016806;28;20045;-81
2022/04/22 05:03:59;;;;;;;11.23;8.35;;;;;;;11.12;67.13;98069.09;5023511;28;20470;-82
2022/04/22 05:06:25;;;;;;;14.18;9.30;;;;;;;11.16;66.88;98061.34;5008698;28;20029;-82
2022/04/22 05:08:50;;;;;;;10.10;8.05;;;;;;;11.08;66.82;98059.22;5024938;28;20247;-82
2022/04/22 05:11:15;;;;;;;13.00;9.27;;;;;;;11.05;67.24;98057.88;5007773;28;20050;-82
2022/04/22 05:13:40;;;;;;;12.35;8.68;;;;;;;11.14;67.20;98064.28;5026729;28;20059;-82
2022/04/22 05:16:06;;;;;;;13.15;9.82;;;;;;;11.11;67.80;98056.03;4992237;28;20025;-85
2022/04/22 05:18:34;;;;;;;13.57;9.98;;;;;;;11.10;68.02;98054.41;5010459;28;20690;-84
2022/04/22 05:20:59;;;;;;;12.88;9.55;;;;;;;11.06;66.99;98042.66;5040845;28;20041;-84
2022/04/22 05:23:24;;;;;;;11.82;8.82;;;;;;;11.01;67.30;98051.50;5021909;28;20025;-84
2022/04/22 05:25:50;;;;;;;11.82;9.00;;;;;;;11.17;67.32;98053.06;4993830;28;20034;-84
2022/04/22 05:28:15;;;;;;;14.90;9.55;;;;;;;11.03;67.95;98059.25;5023672;28;20034;-84
2022/04/22 05:33:24;;;;;;;12.52;9.80;;;;;;;11.20;67.37;98063.19;5013590;28;20048;-85
2022/04/22 05:35:50;;;;;;;11.63;8.77;;;;;;;11.16;67.48;98064.03;4993607;28;20541;-85
2022/04/22 05:38:16;;;;;;;13.85;9.57;;;;;;;11.18;67.15;98051.97;5012408;28;20034;-84
2022/04/22 05:40:46;;;;;;;14.20;10.02;;;;;;;11.24;67.62;98056.25;5006351;28;20528;-84
2022/04/22 05:43:11;;;;;;;13.27;10.07;;;;;;;11.15;67.33;98043.72;5019617;28;20049;-84
2022/04/22 05:45:39;;;;;;;12.57;9.93;;;;;;;11.22;67.15;98049.59;5016765;28;20029;-84
2022/04/22 05:48:06;;;;;;;15.57;10.90;;;;;;;11.20;68.10;98049.06;5013069;28;20033;-84
2022/04/22 05:50:31;;;;;;;13.20;10.73;;;;;;;11.28;66.52;98051.97;5022315;28;20523;-84
2022/04/22 05:52:57;;;;;;;13.80;9.50;;;;;;;11.28;66.47;98054.63;5023159;28;20766;-84
2022/04/22 05:55:25;;;;;;;13.23;10.13;;;;;;;11.25;66.88;98044.47;5026977;28;20116;-83
2022/04/22 05:57:53;;;;;;;14.25;11.10;;;;;;;11.29;67.38;98040.19;5003963;28;20428;-84
2022/04/22 06:00:21;;;;;;;14.10;10.55;;;;;;;11.29;67.73;98055.44;5007758;28;20598;-84
2022/04/22 06:02:47;;;;;;;14.50;10.18;;;;;;;11.25;67.78;98049.03;5025186;28;20075;-84
2022/04/22 06:05:14;;;;;;;14.32;10.30;;;;;;;11.38;67.41;98050.34;5024449;28;20030;-84
2022/04/22 06:07:41;;;;;;;16.50;10.60;;;;;;;11.27;67.42;98047.69;5024437;28;20036;-84
2022/04/22 06:12:53;;;;;;;12.80;9.52;;;;;;;11.27;67.40;98046.88;5020485;28;20507;-84
2022/04/22 06:15:19;;;;;;;14.00;9.35;;;;;;;11.35;67.12;98040.19;5024889;28;20025;-84
2022/04/22 06:17:44;;;;;;;13.23;10.27;;;;;;;11.38;66.81;98045.00;5009340;28;20041;-84
2022/04/22 06:20:10;;;;;;;11.43;10.07;;;;;;;11.38;66.88;98043.09;5029158;28;20548;-84
2022/04/22 06:22:36;;;;;;;14.93;10.75;;;;;;;11.40;67.07;98042.84;5025404;28;20021;-84
2022/04/22 06:25:01;;;;;;;14.77;10.80;;;;;;;11.49;67.09;98044.66;5012860;28;20123;-84
2022/04/22 06:27:29;;;;;;;14.05;10.65;;;;;;;11.43;67.46;98045.75;5010418;28;20029;-84
2022/04/22 06:29:55;;;;;;;14.35;10.82;;;;;;;11.48;67.41;98043.06;5011975;28;20060;-84
2022/04/22 06:32:22;;;;;;;15.68;11.50;;;;;;;11.47;68.00;98041.47;5011486;28;20026;-84
2022/04/22 06:34:50;;;;;;;12.95;10.82;;;;;;;11.58;66.99;98039.53;5005780;28;20469;-83
2022/04/22 06:37:16;;;;;;;17.23;12.27;;;;;;;11.57;67.63;98037.97;5010919;28;20173;-84
2022/04/22 06:47:57;;;;;;;14.00;11.52;;;;;;;11.47;67.74;98021.94;5012048;28;20048;-84
2022/04/22 06:50:22;;;;;;;16.13;11.95;;;;;;;11.52;67.62;98033.44;5003373;28;20026;-84
2022/04/22 06:52:48;;;;;;;15.05;11.90;;;;;;;11.62;67.76;98032.59;5024592;28;20488;-84
2022/04/22 06:55:14;;;;;;;16.00;12.50;;;;;;;11.68;67.45;98028.84;5027981;28;20042;-84
2022/04/22 06:57:40;;;;;;;15.05;11.88;;;;;;;11.63;67.44;98026.16;5026916;28;20496;-84
2022/04/22 07:00:07;;;;;;;14.88;10.75;;;;;;;11.60;67.37;98029.41;5008796;28;20026;-84
2022/04/22 07:02:32;;;;;;;16.00;12.05;;;;;;;11.55;67.42;98016.88;5024263;28;20029;-84
2022/04/22 07:04:58;;;;;;;15.63;11.80;;;;;;;11.68;67.43;98023.50;4996034;28;20038;-84
2022/04/22 07:07:23;;;;;;;17.02;11.30;;;;;;;11.64;67.79;98020.53;5028549;28;20148;-83
2022/04/22 07:09:49;;;;;;;15.13;11.35;;;;;;;11.68;67.15;98005.59;4992057;28;20464;-84
2022/04/22 07:12:15;;;;;;;14.07;12.10;;;;;;;11.67;67.36;98033.41;5011091;28;20046;-84
2022/04/22 07:14:45;;;;;;;15.90;12.60;;;;;;;11.80;67.12;98026.63;5020301;28;20040;-83
2022/04/22 07:17:12;;;;;;;17.15;12.57;;;;;;;11.89;66.76;98035.69;5017872;28;20048;-84
2022/04/22 07:19:37;;;;;;;14.65;11.75;;;;;;;11.81;66.88;98022.91;5027731;28;20033;-84
2022/04/22 07:22:03;;;;;;;13.30;11.85;;;;;;;11.88;67.07;98029.53;5012663;28;20453;-84
2022/04/22 07:24:28;;;;;;;14.68;11.90;;;;;;;11.85;67.23;98019.41;5019750;28;20549;-84
2022/04/22 07:26:56;;;;;;;15.38;12.20;;;;;;;11.82;67.03;98021.81;5013258;28;20387;-84
2022/04/22 07:29:24;;;;;;;14.60;11.52;;;;;;;11.88;66.76;98016.16;5020089;28;20455;-83
2022/04/22 07:31:49;;;;;;;13.75;11.23;;;;;;;11.92;67.27;98014.56;5017786;28;20519;-84
2022/04/22 07:34:15;;;;;;;16.92;12.80;;;;;;;11.90;66.91;98024.69;5006409;28;20112;-84
2022/04/22 07:36:41;;;;;;;17.98;13.05;;;;;;;11.93;66.43;98018.81;5020333;28;20108;-84
2022/04/22 07:39:07;;;;;;;14.90;11.82;;;;;;;11.92;66.63;98022.56;5022616;28;20113;-84
2022/04/22 07:41:34;;;;;;;16.15;12.75;;;;;;;11.95;66.34;98024.69;4994444;28;20120;-84
2022/04/22 07:46:47;;;;;;;15.15;12.52;;;;;;;11.93;66.92;98028.69;5018766;28;20045;-84
2022/04/22 07:49:12;;;;;;;13.70;11.73;;;;;;;11.95;66.46;98029.22;5037385;28;20124;-84
2022/04/22 07:51:42;;;;;;;15.52;12.13;;;;;;;11.99;66.69;98022.25;5023700;28;20235;-84
2022/04/22 07:54:09;;;;;;;18.63;12.52;;;;;;;11.89;66.47;98017.78;5020400;28;20022;-84
2022/04/22 07:56:34;;;;;;;15.65;12.70;;;;;;;12.07;66.41;98028.88;4996828;28;20061;-84
2022/04/22 07:58:59;;;;;;;16.10;11.38;;;;;;;11.98;66.03;98016.09;5008539;28;20135;-83
2022/04/22 08:01:25;;;;;;;16.35;11.68;;;;;;;11.94;66.34;98024.97;5024402;28;20470;-84
2022/04/22 08:03:52;;;;;;;16.42;12.43;;;;;;;12.04;66.62;98036.38;5024486;28;20135;-84
2022/04/22 08:06:17;;;;;;;15.48;11.80;;;;;;;11.87;66.94;98011.91;5012957;28;20036;-83
2022/04/22 08:08:43;;;;;;;14.20;10.93;;;;;;;12.03;66.80;98034.78;5012288;28;20120;-84
2022/04/22 08:11:08;;;;;;;14.57;11.63;;;;;;;12.11;66.36;98036.09;5025517;28;20083;-84
2022/04/22 08:13:35;;;;;;;15.40;12.32;;;;;;;12.12;66.05;98026.19;5013481;28;20044;-84
2022/04/22 08:16:00;;;;;;;13.45;11.15;;;;;;;12.02;66.58;98024.38;5006092;28;20038;-84
2022/04/22 08:18:26;;;;;;;15.30;12.10;;;;;;;11.96;67.03;98038.84;5025798;28;20021;-84
2022/04/22 08:20:51;;;;;;;15.90;12.57;;;;;;;11.93;67.29;98034.84;5027956;28;20037;-83
2022/04/22 08:23:20;;;;;;;19.83;13.50;;;;;;;11.84;67.71;98033.03;4994666;28;20021;-83
2022/04/22 08:25:45;;;;;;;17.70;13.48;;;;;;;11.83;67.57;98032.25;5010241;28;20428;-83
2022/04/22 08:28:11;;;;;;;17.20;12.70;;;;;;;11.77;67.47;98033.31;5020384;28;20039;-84
2022/04/22 08:30:36;;;;;;;17.55;13.27;;;;;;;11.77;68.25;98036.00;5011467;28;20508;-84
2022/04/22 08:33:01;;;;;;;18.02;14.00;;;;;;;11.82;68.64;98041.34;4995761;28;20116;-84
2022/04/22 08:35:27;;;;;;;19.23;13.43;;;;;;;11.84;68.13;98036.50;4995557;28;20432;-83
2022/04/22 08:37:53;;;;;;;15.25;13.30;;;;;;;11.83;67.76;98032.25;5004899;28;20030;-84
2022/04/22 08:40:19;;;;;;;15.85;13.13;;;;;;;11.70;68.58;98026.69;5039128;28;20083;-84
2022/04/22 08:42:46;;;;;;;16.77;14.07;;;;;;;11.88;67.75;98034.09;5025774;28;20033;-83
2022/04/22 08:45:11;;;;;;;15.95;12.40;;;;;;;11.79;68.11;98036.56;5010419;28;20735;-84
2022/04/22 08:50:37;;;;;;;16.42;13.38;;;;;;;11.87;67.83;98046.66;5009257;28;20057;-84
2022/04/22 08:53:05;;;;;;;17.83;13.05;;;;;;;11.77;68.12;98035.22;5002148;28;20482;-84
2022/04/22 08:55:32;;;;;;;16.38;13.93;;;;;;;11.80;67.94;98031.97;5010461;28;20026;-84
2022/04/22 08:57:58;;;;;;;15.60;12.85;;;;;;;11.79;68.16;98046.44;5007691;28;20037;-84
2022/04/22 09:00:27;;;;;;;16.50;12.20;;;;;;;11.83;67.57;98047.50;5023151;28;20092;-84
2022/04/22 09:02:56;;;;;;;15.90;12.63;;;;;;;11.78;68.03;98039.47;5023904;28;20035;-84
2022/04/22 09:05:22;;;;;;;18.10;12.55;;;;;;;11.80;68.29;98037.34;5027810;28;20037;-83
2022/04/22 09:07:47;;;;;;;17.50;13.35;;;;;;;11.69;68.57;98031.25;5010835;28;20080;-83
2022/04/22 09:10:13;;;;;;;19.20;14.02;;;;;;;11.77;68.65;98043.25;5025628;28;20061;-84
2022/04/22 09:12:42;;;;;;;16.27;13.48;;;;;;;11.69;69.37;98019.75;5019172;28;20045;-84
2022/04/22 09:15:09;;;;;;;19.48;13.80;;;;;;;11.72;69.69;98020.00;5024430;28;20080;-83
2022/04/22 09:17:35;;;;;;;19.40;14.10;;;;;;;11.87;70.02;98027.13;4999625;28;20540;-84
2022/04/22 09:20:03;;;;;;;17.50;14.23;;;;;;;11.82;70.81;98014.59;5019793;28;20033;-83
2022/04/22 09:22:36;;;;;;;16.80;13.63;;;;;;;11.75;71.27;98013.31;5012251;28;20026;-83
2022/04/22 09:25:05;;;;;;;17.13;13.27;;;;;;;11.76;71.56;98010.34;5003093;28;20125;-84
2022/04/22 09:27:33;;;;;;;15.00;12.88;;;;;;;11.90;72.08;98013.22;5019713;28;20041;-84
2022/04/22 09:30:00;;;;;;;16.88;13.50;;;;;;;12.06;71.55;98003.22;5023271;28;20121;-84
2022/04/22 09:32:30;;;;;;;16.50;13.20;;;;;;;12.18;71.52;98012.50;5025088;28;20034;-84
2022/04/22 09:35:20;;;;;;;16.25;12.95;;;;;;;12.29;71.74;98015.88;5018274;28;20378;-84
2022/04/22 09:43:31;;;;;;;21.13;14.38;;;;;;;12.47;70.06;98001.84;5030620;28;20064;-84
2022/04/22 09:45:56;;;;;;;16.48;12.05;;;;;;;12.52;69.59;98005.25;5019450;28;20029;-84
2022/04/22 09:48:22;;;;;;;14.95;12.57;;;;;;;12.53;69.68;97990.81;5021178;28;20175;-84
2022/04/22 09:50:52;;;;;;;15.63;12.02;;;;;;;12.57;69.28;97999.06;5007822;28;20116;-84
2022/04/22 09:53:28;;;;;;;17.15;12.80;;;;;;;12.55;69.05;98010.06;5017459;28;20025;-84
2022/04/22 09:55:55;;;;;;;16.65;13.00;;;;;;;12.48;68.63;97995.38;5027856;28;20397;-84
2022/04/22 09:58:28;;;;;;;15.23;12.00;;;;;;;12.53;68.00;97993.47;5045858;28;20036;-84
2022/04/22 10:01:01;;;;;;;15.32;11.85;;;;;;;12.34;68.28;97997.91;5029445;28;20029;-84
2022/04/22 10:03:32;;;;;;;16.20;12.98;;;;;;;12.36;68.28;98001.09;5030038;28;20072;-84
2022/04/22 10:05:58;;;;;;;16.27;12.70;;;;;;;12.30;67.81;97994.19;5014632;28;20044;-84
2022/04/22 10:08:28;;;;;;;17.80;11.85;;;;;;;12.34;68.01;97999.81;5022701;28;20076;-84
2022/04/22 10:10:56;;;;;;;13.20;10.98;;;;;;;12.37;67.24;98000.03;5029258;28;20116;-84
2022/04/22 10:13:26;;;;;;;13.77;11.60;;;;;;;12.35;67.75;98004.88;5013603;28;20044;-84
2022/04/22 10:15:52;;;;;;;14.18;11.80;;;;;;;12.39;67.96;97995.19;5029771;28;20116;-84
2022/04/22 10:18:20;;;;;;;15.32;10.50;;;;;;;12.32;68.12;97996.63;5025641;28;20098;-84
2022/04/22 10:20:46;;;;;;;16.52;11.85;;;;;;;12.46;68.38;97992.19;4995551;28;20397;-84
2022/04/22 10:23:12;;;;;;;15.35;11.75;;;;;;;12.51;68.43;97981.44;5022271;28;20026;-84
2022/04/22 10:25:38;;;;;;;13.93;11.73;;;;;;;12.60;69.05;97977.88;5018078;28;20067;-84
2022/04/22 10:28:06;;;;;;;20.17;14.00;;;;;;;12.82;67.79;97980.84;5010897;28;20087;-83
2022/04/22 10:30:33;;;;;;;18.65;13.50;;;;;;;13.08;67.16;97980.63;5017781;28;20044;-84
2022/04/22 10:32:59;;;;;;;14.80;12.40;;;;;;;13.34;66.79;97976.56;5027816;28;20527;-84
2022/04/22 10:35:25;;;;;;;17.23;12.82;;;;;;;13.55;66.87;97969.84;5028106;28;20039;-84
2022/04/22 10:37:52;;;;;;;17.10;12.85;;;;;;;13.72;66.14;97970.13;5025244;28;20029;-84
2022/04/22 10:40:22;;;;;;;15.48;12.25;;;;;;;13.88;65.21;97954.63;5003183;28;20107;-84
2022/04/22 10:42:51;;;;;;;17.52;12.88;;;;;;;13.98;64.59;97965.19;5021660;28;20025;-84
2022/04/22 10:48:29;;;;;;;14.70;11.77;;;;;;;14.08;64.57;97960.50;5012182;28;20032;-84
2022/04/22 10:51:02;;;;;;;17.92;12.48;;;;;;;14.19;64.19;97959.25;5030425;28;20131;-84
2022/04/22 10:53:39;;;;;;;16.40;12.18;;;;;;;14.44;62.98;97949.97;5022606;28;20037;-84
2022/04/22 10:56:26;;;;;;;16.42;13.80;;;;;;;14.64;62.67;97952.31;5027955;28;20121;-84
2022/04/22 10:59:18;;;;;;;17.55;13.18;;;;;;;14.75;62.18;97948.34;5022938;28;20052;-84
2022/04/22 11:01:43;;;;;;;14.35;12.43;;;;;;;14.75;62.13;97942.19;5040285;28;20033;-84
2022/04/22 11:04:24;;;;;;;16.13;13.93;;;;;;;14.79;61.91;97943.97;4994331;28;20022;-84
2022/04/22 11:06:50;;;;;;;14.30;12.25;;;;;;;14.76;61.78;97925.78;5009139;28;20173;-85
2022/04/22 11:09:31;;;;;;;16.15;11.65;;;;;;;15.00;61.89;97934.41;5028830;28;20528;-84
2022/04/22 11:11:59;;;;;;;16.90;14.07;;;;;;;15.02;60.78;97928.75;5036568;28;20054;-85
2022/04/22 11:14:26;;;;;;;16.70;12.50;;;;;;;15.03;60.92;97925.78;5021364;28;20090;-85
2022/04/22 11:17:15;;;;;;;14.40;12.90;;;;;;;15.06;61.27;97928.94;5010810;28;20026;-85
2022/04/22 11:19:57;;;;;;;17.35;14.10;;;;;;;15.11;59.41;97929.66;5027190;28;20033;-84
2022/04/22 11:22:58;;;;;;;16.58;14.15;;;;;;;15.17;59.77;97933.84;5022796;28;20381;-85
2022/04/22 11:25:29;;;;;;;16.25;12.80;;;;;;;15.15;60.18;97929.84;5013193;28;20041;-84
2022/04/22 11:27:56;;;;;;;16.58;13.52;;;;;;;15.23;59.43;97929.13;5019841;28;20037;-84
2022/04/22 11:30:22;;;;;;;17.88;14.15;;;;;;;15.18;59.19;97921.19;5022666;28;20029;-84
2022/04/22 11:32:52;;;;;;;17.45;13.27;;;;;;;15.21;59.00;97916.00;5020425;28;20105;-84
2022/04/22 11:35:22;;;;;;;15.90;13.98;;;;;;;15.23;58.63;97916.50;5008155;28;20068;-84
2022/04/22 11:38:01;;;;;;;14.55;12.82;;;;;;;15.21;59.13;97913.31;5018581;28;20229;-84
2022/04/22 11:40:27;;;;;;;22.35;13.48;;;;;;;15.26;59.29;97923.16;5023637;28;20116;-84
2022/04/22 11:42:54;;;;;;;15.18;13.55;;;;;;;15.54;58.43;97913.97;5013981;28;20120;-83
2022/04/22 11:45:20;;;;;;;15.68;13.57;;;;;;;15.68;57.67;97910.13;5026927;28;20030;-84
2022/04/22 11:47:46;;;;;;;13.52;12.13;;;;;;;15.63;58.45;97912.97;5017765;28;20044;-84
2022/04/22 11:50:22;;;;;;;18.35;13.35;;;;;;;15.67;57.35;97911.25;5018995;28;20029;-84
2022/04/22 11:52:56;;;;;;;15.57;12.63;;;;;;;15.72;57.30;97913.84;5022708;28;20524;-84
2022/04/22 11:55:31;;;;;;;14.50;11.63;;;;;;;15.73;57.56;97904.66;5010929;28;20064;-84
2022/04/22 11:57:56;;;;;;;18.05;12.60;;;;;;;15.77;56.57;97905.63;5018855;28;20030;-84
2022/04/22 12:05:51;;;;;;;17.27;11.15;;;;;;;15.96;57.20;97902.78;5026572;28;20177;-84
2022/04/22 12:08:17;;;;;;;14.35;11.57;;;;;;;15.95;57.43;97903.06;5025944;28;20235;-84
2022/04/22 12:10:46;;;;;;;13.57;11.75;;;;;;;15.93;57.11;97891.81;5028332;28;20029;-84
2022/04/22 12:13:13;;;;;;;14.70;11.57;;;;;;;16.04;56.89;97893.97;5023650;28;20405;-84
2022/04/22 12:15:39;;;;;;;12.38;11.02;;;;;;;16.05;56.90;97900.94;5019872;28;20023;-84
2022/04/22 12:18:05;;;;;;;20.20;10.73;;;;;;;15.98;56.93;97881.72;5019595;28;20029;-84
2022/04/22 12:20:32;;;;;;;13.57;11.90;;;;;;;16.16;55.84;97898.78;5026430;28;20079;-84